Time;durP1;ratioP1;P1;durP2;ratioP2;P2;SDS_P1;SDS_P2;PMS_P1;PMS_P2;Temp;Humidity;BMP_temperature;BMP_pressure;BME280_temperature;BME280_humidity;BME280_pressure;Samples;Min_cycle;Max_cycle;Signal;HPM_P1;HPM_P2
2022/08/27 00:03:30;;;;;;;13.70;6.30;;;;;;;21.22;52.80;98557.05;238625;1192;140013;-60
2022/08/27 00:08:33;;;;;;;17.30;6.20;;;;;;;21.18;52.73;98562.20;238237;1191;139502;-59
2022/08/27 00:13:37;;;;;;;11.60;6.40;;;;;;;21.14;52.98;98563.94;238259;1191;139418;-59
2022/08/27 00:18:41;;;;;;;11.40;6.10;;;;;;;21.11;52.99;98563.95;238902;1191;139843;-59
2022/08/27 00:23:50;;;;;;;11.00;6.80;;;;;;;21.08;53.00;98559.77;238685;1192;139448;-58
2022/08/27 00:28:53;;;;;;;14.50;6.30;;;;;;;21.07;53.25;98556.33;238967;1192;139203;-59
2022/08/27 00:33:56;;;;;;;12.40;7.00;;;;;;;21.07;53.33;98559.40;238505;1190;139040;-59
2022/08/27 00:38:59;;;;;;;14.80;7.10;;;;;;;21.04;53.40;98557.33;238905;1190;139055;-59
2022/08/27 00:44:03;;;;;;;12.70;7.00;;;;;;;20.99;53.45;98555.52;238684;1191;139646;-59
2022/08/27 00:49:16;;;;;;;18.10;7.60;;;;;;;20.93;53.39;98557.07;238886;1190;138994;-60
2022/08/27 00:54:20;;;;;;;12.20;7.60;;;;;;;20.93;53.53;98561.30;238454;1191;139231;-59
2022/08/27 00:59:28;;;;;;;14.00;7.40;;;;;;;20.91;53.61;98561.34;238693;1191;139668;-59
2022/08/27 01:04:34;;;;;;;13.60;7.40;;;;;;;20.88;53.78;98564.01;239029;1192;140705;-59
2022/08/27 01:09:39;;;;;;;13.00;6.90;;;;;;;20.86;53.81;98559.38;237466;1191;139915;-59
2022/08/27 01:14:44;;;;;;;14.00;7.10;;;;;;;20.84;53.92;98557.66;238727;1191;139402;-59
2022/08/27 01:19:49;;;;;;;17.30;6.80;;;;;;;20.79;53.82;98558.02;238907;1191;139120;-59
2022/08/27 01:24:59;;;;;;;12.30;6.30;;;;;;;20.75;54.13;98563.80;238239;1192;139841;-59
2022/08/27 01:30:05;;;;;;;11.40;7.80;;;;;;;20.74;54.26;98561.77;238794;1192;139659;-59
2022/08/27 01:35:12;;;;;;;16.20;6.90;;;;;;;20.72;54.57;98560.69;238728;1191;139441;-59
2022/08/27 01:40:17;;;;;;;14.50;7.50;;;;;;;20.68;54.51;98554.48;239124;1191;139830;-59
2022/08/27 01:45:28;;;;;;;19.10;7.00;;;;;;;20.65;54.81;98555.09;238922;1191;139849;-58
2022/08/27 01:50:35;;;;;;;10.40;5.80;;;;;;;20.65;54.80;98553.98;238938;1191;139520;-59
2022/08/27 01:55:39;;;;;;;11.30;6.10;;;;;;;20.68;54.93;98549.84;238665;1192;140087;-59
2022/08/27 02:00:53;;;;;;;13.10;6.00;;;;;;;20.67;54.95;98547.62;238875;1190;139512;-58
2022/08/27 02:06:02;;;;;;;13.80;5.70;;;;;;;20.63;54.94;98556.04;238222;1191;139784;-57
2022/08/27 02:11:07;;;;;;;10.50;6.20;;;;;;;20.54;54.84;98563.33;237856;1191;139752;-59
2022/08/27 02:16:10;;;;;;;11.20;6.30;;;;;;;20.45;54.95;98559.87;238799;1190;139499;-58
2022/08/27 02:21:17;;;;;;;11.20;5.60;;;;;;;20.38;54.99;98548.26;239060;1191;139118;-59
2022/08/27 02:26:21;;;;;;;10.40;6.00;;;;;;;20.31;55.07;98540.60;238425;1192;140332;-59
2022/08/27 02:31:24;;;;;;;13.10;6.40;;;;;;;20.26;55.13;98538.73;238990;1190;139047;-58
2022/08/27 02:36:27;;;;;;;12.40;5.90;;;;;;;20.22;55.21;98544.45;238720;1192;139598;-58
2022/08/27 02:41:30;;;;;;;13.80;6.10;;;;;;;20.19;55.22;98549.64;238979;1191;139267;-58
2022/08/27 02:46:33;;;;;;;11.60;6.70;;;;;;;20.14;55.37;98554.03;239129;1191;139309;-59
2022/08/27 02:51:36;;;;;;;9.70;6.60;;;;;;;20.08;55.44;98556.27;238526;1191;139817;-58
2022/08/27 02:56:40;;;;;;;13.40;6.70;;;;;;;20.05;55.63;98546.13;238575;1192;140110;-58
2022/08/27 03:01:43;;;;;;;17.10;6.90;;;;;;;20.02;55.66;98544.84;239015;1190;140089;-58
2022/08/27 03:06:46;;;;;;;13.30;7.20;;;;;;;19.99;55.79;98545.21;238984;1190;139929;-59
2022/08/27 03:11:49;;;;;;;9.90;6.10;;;;;;;19.97;55.94;98544.15;238749;1191;140041;-58
2022/08/27 03:16:53;;;;;;;15.40;7.00;;;;;;;19.97;55.96;98545.05;238787;1191;139969;-58
2022/08/27 03:21:56;;;;;;;13.00;6.80;;;;;;;19.99;56.03;98546.26;237677;1191;140078;-59
2022/08/27 03:26:59;;;;;;;12.30;6.50;;;;;;;19.98;56.05;98547.61;239011;1190;139360;-58
2022/08/27 03:32:05;;;;;;;10.10;6.60;;;;;;;19.97;55.95;98548.70;239016;1190;139524;-58
2022/08/27 03:37:08;;;;;;;9.50;6.20;;;;;;;19.91;55.94;98542.67;238980;1190;139375;-59
2022/08/27 03:42:11;;;;;;;13.10;6.00;;;;;;;19.87;56.00;98543.80;238857;1191;139947;-59
2022/08/27 03:47:14;;;;;;;11.10;6.70;;;;;;;19.80;56.15;98542.68;238893;1192;139390;-58
2022/08/27 03:52:18;;;;;;;12.60;6.20;;;;;;;19.75;56.28;98545.57;237903;1192;141796;-58
2022/08/27 03:57:21;;;;;;;16.30;6.40;;;;;;;19.71;56.29;98538.64;237903;1192;139138;-58
2022/08/27 04:02:24;;;;;;;10.80;6.60;;;;;;;19.65;56.27;98539.37;239004;1190;139529;-59
2022/08/27 04:07:28;;;;;;;9.40;6.20;;;;;;;19.57;56.51;98541.89;238927;1190;139058;-59
2022/08/27 04:12:31;;;;;;;10.00;6.90;;;;;;;19.55;56.64;98539.08;238936;1192;139705;-58
2022/08/27 04:17:34;;;;;;;10.10;6.00;;;;;;;19.54;56.75;98540.10;238990;1190;142440;-59
2022/08/27 04:22:38;;;;;;;12.00;6.00;;;;;;;19.57;56.90;98541.98;239206;1190;141608;-59
2022/08/27 04:27:42;;;;;;;11.90;6.70;;;;;;;19.63;56.91;98543.98;238715;1191;139258;-58
2022/08/27 04:32:45;;;;;;;8.90;6.50;;;;;;;19.70;57.02;98543.44;239029;1192;140256;-59
2022/08/27 04:37:48;;;;;;;13.20;6.40;;;;;;;19.74;56.86;98546.41;238798;1192;140124;-59
2022/08/27 04:42:51;;;;;;;12.00;6.80;;;;;;;19.76;56.84;98545.48;238868;1192;139262;-59
2022/08/27 04:47:54;;;;;;;12.10;6.50;;;;;;;19.76;56.79;98536.63;239019;1190;139888;-59
2022/08/27 04:52:57;;;;;;;10.10;6.80;;;;;;;19.78;56.74;98528.74;239140;1190;139571;-60
2022/08/27 04:58:01;;;;;;;13.70;6.40;;;;;;;19.79;56.89;98523.73;238831;1190;139411;-59
2022/08/27 05:03:04;;;;;;;11.80;6.50;;;;;;;19.82;57.00;98524.65;238665;1190;139964;-60
2022/08/27 05:08:09;;;;;;;8.50;6.20;;;;;;;19.87;57.03;98531.36;238900;1190;140365;-59
2022/08/27 05:13:13;;;;;;;10.80;5.90;;;;;;;19.92;56.98;98538.75;238582;1192;139932;-59
2022/08/27 05:18:16;;;;;;;10.20;6.00;;;;;;;19.96;57.14;98539.33;238883;1190;139682;-58
2022/08/27 05:23:19;;;;;;;11.40;6.30;;;;;;;20.03;57.37;98540.05;239073;1190;140083;-59
2022/08/27 05:28:24;;;;;;;13.60;7.00;;;;;;;20.15;57.74;98541.77;238884;1192;139818;-59
2022/08/27 05:33:29;;;;;;;14.10;6.40;;;;;;;20.31;57.63;98545.05;238802;1192;140543;-60
2022/08/27 05:38:33;;;;;;;11.70;6.40;;;;;;;20.47;57.59;98552.69;238911;1190;139636;-59
2022/08/27 05:43:39;;;;;;;13.70;7.00;;;;;;;20.61;57.65;98547.05;238497;1192;139836;-59
2022/08/27 05:48:42;;;;;;;14.60;8.30;;;;;;;20.74;57.55;98541.21;239028;1191;140044;-58
2022/08/27 05:53:45;;;;;;;13.50;8.80;;;;;;;20.87;57.54;98532.40;238730;1190;144320;-59
2022/08/27 06:04:12;;;;;;;13.20;8.40;;;;;;;21.17;57.22;98534.33;238697;1192;139180;-59
2022/08/27 06:09:25;;;;;;;12.80;8.20;;;;;;;21.31;57.11;98540.33;238814;1192;139203;-59
2022/08/27 06:14:29;;;;;;;14.00;9.10;;;;;;;21.42;57.08;98541.38;238170;1190;139860;-59
2022/08/27 06:19:33;;;;;;;15.00;8.70;;;;;;;21.50;56.98;98539.83;238985;1191;140585;-59
2022/08/27 06:24:38;;;;;;;19.80;8.10;;;;;;;21.58;56.99;98538.16;239053;1191;140115;-59
2022/08/27 06:29:42;;;;;;;;;;;;;;;21.66;57.01;98546.75;238979;1191;139759;-59
2022/08/27 06:34:46;;;;;;;14.00;8.80;;;;;;;21.75;56.93;98554.41;238717;1192;125399;-59
2022/08/27 06:39:50;;;;;;;16.30;9.00;;;;;;;21.86;56.95;98558.95;237538;1190;140851;-60
2022/08/27 06:44:53;;;;;;;17.20;8.40;;;;;;;21.97;56.98;98557.05;238278;1191;138993;-59
2022/08/27 06:49:58;;;;;;;16.30;9.30;;;;;;;22.09;56.96;98559.65;239022;1192;139722;-59
2022/08/27 06:55:02;;;;;;;16.80;9.00;;;;;;;22.22;56.64;98561.49;238312;1190;140088;-59
2022/08/27 07:00:08;;;;;;;19.70;9.40;;;;;;;22.35;56.22;98562.02;237963;1190;139144;-61
2022/08/27 07:05:11;;;;;;;16.20;9.80;;;;;;;22.48;55.91;98564.33;238747;1190;139849;-59
2022/08/27 07:10:14;;;;;;;16.80;9.70;;;;;;;22.58;55.69;98560.20;238121;1192;139356;-59
2022/08/27 07:15:17;;;;;;;19.50;10.20;;;;;;;22.67;55.46;98561.30;238502;1192;139235;-59
2022/08/27 07:20:25;;;;;;;17.30;9.80;;;;;;;22.75;55.24;98566.55;237338;1192;139384;-59
2022/08/27 07:25:30;;;;;;;20.50;10.00;;;;;;;22.83;55.14;98564.44;238200;1190;138949;-60
2022/08/27 07:30:36;;;;;;;20.20;10.90;;;;;;;22.92;55.05;98564.78;238804;1191;140014;-59
2022/08/27 07:35:39;;;;;;;20.10;10.50;;;;;;;23.01;54.84;98565.19;239065;1190;139481;-59
2022/08/27 07:40:42;;;;;;;22.50;10.70;;;;;;;23.11;54.84;98567.26;238853;1191;139600;-60
2022/08/27 07:45:47;;;;;;;16.20;10.30;;;;;;;23.21;54.73;98567.03;238910;1190;139127;-60
2022/08/27 07:50:51;;;;;;;18.80;10.30;;;;;;;23.32;54.59;98572.41;238691;1191;140710;-59
2022/08/27 07:55:54;;;;;;;14.70;7.80;;;;;;;23.48;54.81;98572.20;238942;1190;139725;-60
2022/08/27 08:00:57;;;;;;;12.90;7.90;;;;;;;23.69;55.23;98574.44;238828;1192;139170;-60
2022/08/27 08:06:07;;;;;;;13.10;8.00;;;;;;;23.88;55.20;98579.81;238811;1190;138939;-61
2022/08/27 08:11:14;;;;;;;16.80;9.10;;;;;;;24.06;55.01;98583.70;236378;1192;140595;-60
2022/08/27 08:16:18;;;;;;;16.00;9.40;;;;;;;24.19;54.57;98578.77;237548;1192;139697;-60
2022/08/27 08:21:21;;;;;;;16.80;9.70;;;;;;;24.29;54.17;98584.06;238811;1190;139298;-60
2022/08/27 08:26:24;;;;;;;17.90;11.10;;;;;;;24.39;53.58;98593.20;238904;1190;140411;-59
2022/08/27 08:31:27;;;;;;;18.40;11.50;;;;;;;24.46;52.98;98589.98;238365;1191;139827;-59
2022/08/27 08:36:31;;;;;;;23.10;10.60;;;;;;;24.48;52.60;98595.48;238801;1192;139831;-59
2022/08/27 08:41:41;;;;;;;21.20;11.20;;;;;;;24.60;52.52;98598.57;238708;1191;140502;-59
2022/08/27 08:47:15;;;;;;;19.10;9.80;;;;;;;24.79;52.31;98597.37;239015;1190;139653;-60
2022/08/27 08:52:33;;;;;;;18.20;10.00;;;;;;;24.96;51.75;98595.89;237733;1190;139605;-59
2022/08/27 08:58:14;;;;;;;21.40;11.10;;;;;;;25.12;51.53;98605.35;238553;1192;140867;-60
2022/08/27 09:03:17;;;;;;;19.80;10.70;;;;;;;25.33;51.18;98607.81;238756;1190;139057;-60
2022/08/27 09:08:26;;;;;;;19.40;9.40;;;;;;;25.51;50.70;98607.48;238934;1192;139909;-60
2022/08/27 09:13:50;;;;;;;14.20;9.50;;;;;;;25.68;50.43;98603.89;238843;1190;139270;-60
2022/08/27 09:18:54;;;;;;;17.90;9.20;;;;;;;25.88;50.08;98603.83;238111;1190;139589;-60
2022/08/27 09:24:24;;;;;;;15.10;8.90;;;;;;;26.08;49.79;98602.80;237803;1190;139489;-59
2022/08/27 09:29:28;;;;;;;18.60;9.40;;;;;;;26.28;49.41;98603.55;238521;1190;139336;-60
2022/08/27 09:34:36;;;;;;;16.30;8.40;;;;;;;26.46;49.04;98598.75;238566;1192;139577;-58
2022/08/27 09:39:44;;;;;;;20.50;9.40;;;;;;;26.66;48.71;98598.23;237888;1190;140302;-59
2022/08/27 09:44:48;;;;;;;14.90;8.90;;;;;;;26.83;48.23;98600.25;237472;1190;138828;-59
2022/08/27 09:50:06;;;;;;;18.00;7.90;;;;;;;26.97;47.66;98596.42;237593;1191;139656;-60
2022/08/27 09:55:10;;;;;;;16.10;8.50;;;;;;;27.11;47.79;98588.73;238739;1191;139357;-60
2022/08/27 10:00:15;;;;;;;15.70;7.80;;;;;;;27.22;47.66;98589.43;238114;1191;139368;-60
2022/08/27 10:05:28;;;;;;;13.40;7.40;;;;;;;27.34;47.18;98592.14;238383;1192;139092;-60
2022/08/27 10:10:55;;;;;;;16.50;7.30;;;;;;;27.61;47.07;98589.61;238062;1190;139093;-60
2022/08/27 10:16:15;;;;;;;16.40;6.90;;;;;;;27.93;47.06;98587.62;238419;1190;139545;-61
2022/08/27 10:21:27;;;;;;;13.10;7.80;;;;;;;28.23;47.04;98577.98;238209;1190;139963;-61
2022/08/27 10:26:44;;;;;;;16.60;7.20;;;;;;;28.47;46.83;98570.45;239045;1190;139286;-60
2022/08/27 10:32:21;;;;;;;14.30;6.70;;;;;;;28.72;46.57;98576.17;237941;1190;139536;-60
2022/08/27 10:37:29;;;;;;;13.70;6.40;;;;;;;28.86;46.25;98574.33;238255;1191;139142;-59
2022/08/27 10:43:08;;;;;;;13.30;6.70;;;;;;;29.04;45.46;98570.85;238760;1190;139938;-58
2022/08/27 10:48:23;;;;;;;11.50;5.80;;;;;;;29.27;44.96;98565.27;238018;1191;141513;-59
2022/08/27 10:53:33;;;;;;;11.30;5.90;;;;;;;29.49;44.35;98566.98;238860;1190;139781;-59
2022/08/27 10:59:15;;;;;;;13.10;6.00;;;;;;;29.62;44.00;98564.05;238973;1190;139380;-58
2022/08/27 11:04:24;;;;;;;10.30;5.60;;;;;;;29.78;43.25;98557.68;238933;1190;138859;-58
2022/08/27 11:10:00;;;;;;;15.00;6.00;;;;;;;29.91;42.57;98555.27;237522;1192;139233;-57
2022/08/27 11:15:19;;;;;;;14.80;6.10;;;;;;;30.16;42.21;98555.02;238218;1191;139432;-58
2022/08/27 11:20:31;;;;;;;13.20;4.90;;;;;;;30.41;41.79;98554.10;238799;1190;138889;-57
2022/08/27 11:25:57;;;;;;;10.20;4.80;;;;;;;30.62;41.14;98553.39;238131;1192;139479;-58
2022/08/27 11:31:18;;;;;;;16.70;5.70;;;;;;;30.79;40.68;98550.89;237460;1190;140369;-58
2022/08/27 11:36:44;;;;;;;10.10;5.20;;;;;;;30.91;39.68;98555.00;238472;1190;140516;-57
2022/08/27 11:42:10;;;;;;;10.60;4.80;;;;;;;31.05;39.55;98552.00;238757;1190;139368;-58
2022/08/27 11:47:20;;;;;;;9.40;4.50;;;;;;;31.20;38.88;98545.70;238527;1190;139184;-57
2022/08/27 11:52:25;;;;;;;12.10;5.00;;;;;;;31.23;38.88;98533.84;238559;1191;139132;-57
2022/08/27 11:57:35;;;;;;;11.90;5.00;;;;;;;31.37;39.14;98529.27;237689;1190;139665;-58
2022/08/27 12:02:39;;;;;;;12.10;5.60;;;;;;;31.52;39.31;98529.48;238570;1190;139708;-59
2022/08/27 12:07:44;;;;;;;14.60;5.40;;;;;;;31.69;39.31;98526.76;238164;1191;139681;-57
2022/08/27 12:12:58;;;;;;;15.10;5.40;;;;;;;31.86;39.39;98526.67;238795;1190;138981;-58
2022/08/27 12:18:18;;;;;;;10.20;5.30;;;;;;;31.98;39.10;98526.09;237620;1192;139567;-59
2022/08/27 12:23:40;;;;;;;10.90;5.00;;;;;;;32.07;38.96;98519.13;237945;1190;139768;-58
2022/08/27 12:28:44;;;;;;;12.70;5.80;;;;;;;32.20;38.72;98519.81;238446;1190;138778;-58
2022/08/27 12:33:50;;;;;;;9.20;5.20;;;;;;;32.28;38.75;98516.83;237226;1192;139240;-58
2022/08/27 12:38:56;;;;;;;10.90;5.30;;;;;;;32.41;38.50;98505.87;238579;1190;140274;-58
2022/08/27 12:44:09;;;;;;;10.40;4.80;;;;;;;32.52;37.90;98505.02;238476;1192;139481;-58
2022/08/27 12:49:17;;;;;;;12.00;5.30;;;;;;;32.64;37.69;98504.34;238285;1190;139739;-57
2022/08/27 12:54:51;;;;;;;12.50;5.60;;;;;;;32.75;37.50;98501.98;237635;1191;138854;-57
2022/08/27 13:00:14;;;;;;;11.10;5.00;;;;;;;32.93;37.35;98499.44;237978;1190;139427;-58
2022/08/27 13:05:20;;;;;;;15.00;5.10;;;;;;;32.95;37.05;98496.71;237751;1190;139881;-58
2022/08/27 13:10:28;;;;;;;8.70;4.90;;;;;;;33.02;36.96;98495.17;238884;1190;139130;-58
2022/08/27 13:15:32;;;;;;;11.40;5.20;;;;;;;33.12;36.99;98488.04;238937;1191;139359;-59
2022/08/27 13:20:38;;;;;;;12.00;5.00;;;;;;;33.17;36.53;98490.77;238117;1192;139485;-59
2022/08/27 13:25:53;;;;;;;12.80;4.90;;;;;;;33.32;35.86;98485.75;237699;1192;138686;-59
2022/08/27 13:30:58;;;;;;;11.60;5.00;;;;;;;33.37;35.43;98474.24;238732;1191;139432;-59
2022/08/27 13:36:02;;;;;;;11.00;4.40;;;;;;;33.56;35.52;98473.05;238746;1191;139299;-57
2022/08/27 13:41:21;;;;;;;10.30;5.10;;;;;;;33.75;35.35;98473.16;239066;1191;139114;-57
2022/08/27 13:46:28;;;;;;;11.50;5.20;;;;;;;33.97;35.38;98471.05;238962;1190;139117;-57
2022/08/27 13:51:34;;;;;;;7.20;5.20;;;;;;;33.96;35.44;98474.26;238703;1192;139162;-58
2022/08/27 13:56:56;;;;;;;10.20;5.20;;;;;;;33.86;35.34;98473.39;238603;1191;139194;-57
2022/08/27 14:02:10;;;;;;;11.30;5.30;;;;;;;33.74;35.05;98463.27;237384;1191;139129;-55
2022/08/27 14:07:24;;;;;;;13.50;5.00;;;;;;;33.67;35.15;98459.11;238152;1191;139517;-59
2022/08/27 14:12:30;;;;;;;;;;;;;;;33.55;35.31;98460.73;238413;1191;138986;-58
2022/08/27 14:17:37;;;;;;;12.20;4.90;;;;;;;33.40;35.04;98461.02;238906;1190;126288;-59
2022/08/27 14:22:41;;;;;;;8.70;4.90;;;;;;;33.24;35.02;98458.61;238750;1190;140805;-58
2022/08/27 14:27:44;;;;;;;;;;;;;;;33.03;35.07;98464.67;238655;1191;139612;-58
2022/08/27 14:32:59;;;;;;;9.20;4.50;;;;;;;32.67;34.95;98463.92;238968;1191;125478;-58
2022/08/27 14:38:17;;;;;;;13.10;4.50;;;;;;;32.25;34.72;98463.72;238344;1190;160713;-58
2022/08/27 14:43:20;;;;;;;13.70;5.00;;;;;;;31.91;34.48;98463.51;238562;1190;139588;-58
2022/08/27 14:48:29;;;;;;;10.40;4.30;;;;;;;31.66;34.32;98468.14;237494;1190;139397;-58
2022/08/27 14:53:32;;;;;;;10.40;4.20;;;;;;;31.44;34.32;98464.45;238179;1190;139398;-58
2022/08/27 14:58:35;;;;;;;10.50;4.20;;;;;;;31.23;34.40;98470.77;238887;1190;139033;-58
2022/08/27 15:03:46;;;;;;;7.70;4.10;;;;;;;31.07;34.56;98469.91;238893;1191;139173;-58
2022/08/27 15:08:50;;;;;;;12.40;4.30;;;;;;;30.90;34.55;98473.23;238705;1190;139268;-59
2022/08/27 15:13:54;;;;;;;15.40;4.50;;;;;;;30.73;34.76;98477.93;238648;1190;139394;-58
2022/08/27 15:18:59;;;;;;;9.40;4.00;;;;;;;30.55;34.52;98482.95;238926;1190;139639;-59
2022/08/27 15:24:07;;;;;;;9.60;4.40;;;;;;;30.40;34.47;98483.79;238972;1190;139177;-59
2022/08/27 15:29:10;;;;;;;8.90;4.30;;;;;;;30.17;34.39;98481.61;238891;1192;141940;-58
2022/08/27 15:34:14;;;;;;;8.30;4.40;;;;;;;29.99;34.52;98482.34;237401;1191;139105;-57
2022/08/27 15:39:17;;;;;;;13.60;4.50;;;;;;;29.84;34.69;98486.82;237737;1190;138734;-57
2022/08/27 15:44:20;;;;;;;8.90;4.60;;;;;;;29.74;34.91;98490.42;238964;1190;139148;-57
2022/08/27 15:49:23;;;;;;;9.10;4.40;;;;;;;29.65;34.89;98486.13;238830;1190;140267;-58
2022/08/27 15:54:26;;;;;;;12.90;4.60;;;;;;;29.56;35.04;98483.64;238818;1191;139421;-58
2022/08/27 15:59:30;;;;;;;14.30;5.00;;;;;;;29.49;35.05;98484.33;237956;1190;140332;-58
2022/08/27 16:04:33;;;;;;;14.50;5.80;;;;;;;29.43;35.57;98489.38;238036;1190;139222;-58
2022/08/27 16:09:37;;;;;;;18.60;7.70;;;;;;;29.30;36.95;98501.71;238916;1191;140315;-57
2022/08/27 16:14:40;;;;;;;16.30;7.80;;;;;;;29.13;38.71;98503.55;237756;1192;139740;-57
2022/08/27 16:19:43;;;;;;;12.00;6.60;;;;;;;28.95;39.82;98501.05;238249;1191;140182;-58
2022/08/27 16:24:46;;;;;;;11.10;6.90;;;;;;;28.78;40.90;98501.20;238797;1192;139616;-56
2022/08/27 16:29:49;;;;;;;14.30;6.80;;;;;;;28.61;41.54;98502.91;238722;1192;139132;-58
2022/08/27 16:34:52;;;;;;;12.40;6.60;;;;;;;28.45;42.25;98508.73;238934;1191;139082;-58
2022/08/27 16:39:57;;;;;;;16.00;6.90;;;;;;;28.33;42.76;98511.16;238653;1192;140244;-57
2022/08/27 16:45:00;;;;;;;14.90;7.30;;;;;;;28.23;43.36;98512.46;238765;1192;140508;-57
2022/08/27 16:55:28;;;;;;;10.60;6.30;;;;;;;28.06;44.22;98524.20;238539;1192;139189;-57
2022/08/27 17:00:32;;;;;;;12.60;6.00;;;;;;;27.99;44.49;98528.61;238810;1192;139063;-56
2022/08/27 17:05:35;;;;;;;10.10;5.70;;;;;;;27.93;44.71;98530.64;238761;1192;139283;-58
2022/08/27 17:10:44;;;;;;;10.70;6.10;;;;;;;27.91;44.76;98531.88;239109;1190;139584;-59
2022/08/27 17:15:50;;;;;;;11.80;5.90;;;;;;;27.89;44.96;98538.61;239051;1191;139562;-59
2022/08/27 17:20:56;;;;;;;10.60;5.90;;;;;;;27.85;45.05;98542.88;238830;1192;139466;-59
2022/08/27 17:26:00;;;;;;;;;;;;;;;27.81;45.14;98546.78;238341;1192;140468;-59
2022/08/27 17:31:03;;;;;;;10.10;5.30;;;;;;;27.75;45.23;98551.46;238264;1191;125521;-59
2022/08/27 17:36:08;;;;;;;14.80;5.80;;;;;;;27.70;45.33;98553.88;238755;1191;139781;-60
2022/08/27 17:41:18;;;;;;;12.20;6.20;;;;;;;27.64;45.37;98554.61;238808;1192;140050;-59
2022/08/27 17:46:22;;;;;;;14.40;6.10;;;;;;;27.58;45.40;98558.05;237972;1192;140136;-59
2022/08/27 17:51:26;;;;;;;11.90;5.80;;;;;;;27.52;45.50;98562.18;238892;1190;139084;-59
2022/08/27 17:56:29;;;;;;;14.00;5.70;;;;;;;27.46;45.68;98566.20;239018;1190;139522;-59
2022/08/27 18:01:32;;;;;;;11.50;6.10;;;;;;;27.40;46.01;98566.39;238976;1191;139674;-59
2022/08/27 18:06:37;;;;;;;9.60;6.20;;;;;;;27.31;46.29;98562.50;237225;1192;139596;-58
2022/08/27 18:11:41;;;;;;;10.90;5.90;;;;;;;27.21;46.49;98551.73;237972;1192;140291;-59
2022/08/27 18:16:45;;;;;;;12.30;5.80;;;;;;;27.10;46.75;98546.85;237689;1191;138654;-58
2022/08/27 18:21:49;;;;;;;13.30;5.70;;;;;;;26.99;46.85;98547.08;238497;1192;139261;-58
2022/08/27 18:26:52;;;;;;;13.20;8.20;;;;;;;26.89;46.99;98557.48;238521;1191;139954;-58
2022/08/27 18:31:55;;;;;;;13.50;6.20;;;;;;;26.80;47.38;98555.55;237732;1192;139239;-57
2022/08/27 18:36:58;;;;;;;14.80;6.50;;;;;;;26.75;47.62;98559.05;238154;1192;139713;-58
2022/08/27 18:42:02;;;;;;;11.60;6.30;;;;;;;26.71;47.78;98569.24;238212;1191;139222;-59
2022/08/27 18:47:05;;;;;;;13.80;7.40;;;;;;;26.67;48.15;98572.73;238039;1192;141258;-58
2022/08/27 18:52:10;;;;;;;12.00;6.20;;;;;;;26.63;48.17;98574.09;238750;1192;139303;-57
2022/08/27 18:57:13;;;;;;;11.60;6.60;;;;;;;26.59;48.18;98584.58;238859;1192;139172;-57
2022/08/27 19:02:19;;;;;;;16.30;5.90;;;;;;;26.48;48.08;98594.67;237969;1192;141420;-58
2022/08/27 19:07:23;;;;;;;11.70;5.80;;;;;;;26.35;48.08;98605.84;238727;1190;139251;-57
2022/08/27 19:12:26;;;;;;;13.80;5.90;;;;;;;26.22;48.44;98628.06;238778;1190;139099;-58
2022/08/27 19:17:32;;;;;;;15.10;7.30;;;;;;;26.08;49.07;98651.39;238257;1190;139416;-58
2022/08/27 19:22:35;;;;;;;13.30;7.60;;;;;;;25.89;49.74;98664.20;238819;1192;140286;-58
2022/08/27 19:27:38;;;;;;;13.50;8.30;;;;;;;25.72;50.38;98668.79;237765;1192;139393;-58
2022/08/27 19:32:42;;;;;;;12.20;7.00;;;;;;;25.55;51.02;98670.16;238670;1192;139233;-58
2022/08/27 19:37:48;;;;;;;11.40;6.20;;;;;;;25.38;51.52;98664.26;238138;1190;139665;-57
2022/08/27 19:42:54;;;;;;;15.00;7.00;;;;;;;25.22;51.75;98661.14;238163;1190;139413;-56
2022/08/27 19:47:58;;;;;;;9.40;5.70;;;;;;;25.08;51.64;98669.42;238968;1192;141072;-57
2022/08/27 19:53:01;;;;;;;10.90;6.20;;;;;;;24.95;52.02;98671.85;238937;1192;139289;-57
2022/08/27 19:58:04;;;;;;;13.20;5.50;;;;;;;24.88;52.05;98680.42;238287;1190;140229;-58
2022/08/27 20:03:08;;;;;;;8.20;4.70;;;;;;;24.75;52.03;98681.65;238958;1192;139310;-58
2022/08/27 20:08:11;;;;;;;12.00;4.70;;;;;;;24.61;52.14;98691.09;238344;1192;138839;-57
2022/08/27 20:13:16;;;;;;;12.30;4.30;;;;;;;24.44;52.46;98689.98;238148;1192;138820;-57
2022/08/27 20:18:21;;;;;;;7.60;3.90;;;;;;;24.24;52.33;98692.00;237666;1192;139820;-57
2022/08/27 20:23:24;;;;;;;10.40;4.30;;;;;;;24.05;52.50;98697.84;238822;1190;139461;-58
2022/08/27 20:28:27;;;;;;;11.10;4.00;;;;;;;23.92;52.74;98697.66;238899;1192;139101;-57
2022/08/27 20:33:45;;;;;;;7.90;3.80;;;;;;;23.79;53.00;98697.04;238755;1191;140312;-57
2022/08/27 20:38:48;;;;;;;8.90;4.30;;;;;;;23.69;53.29;98696.84;238348;1192;139124;-57
2022/08/27 20:43:51;;;;;;;8.70;3.90;;;;;;;23.55;53.65;98694.36;238360;1192;139251;-58
2022/08/27 20:48:55;;;;;;;10.30;6.00;;;;;;;23.48;53.89;98696.48;238427;1192;139474;-57
2022/08/27 20:53:59;;;;;;;10.50;4.50;;;;;;;23.49;54.11;98698.52;238040;1192;139285;-57
2022/08/27 21:04:25;;;;;;;10.20;3.90;;;;;;;23.27;54.77;98701.37;239138;1190;139176;-57
2022/08/27 21:09:28;;;;;;;9.10;4.00;;;;;;;23.29;55.05;98688.45;238639;1192;139341;-57
2022/08/27 21:14:31;;;;;;;9.80;3.90;;;;;;;23.29;55.16;98688.98;238665;1192;138964;-58
2022/08/27 21:19:36;;;;;;;8.60;3.70;;;;;;;23.24;55.20;98676.55;237911;1190;139465;-57
2022/08/27 21:24:39;;;;;;;11.60;3.60;;;;;;;23.17;55.33;98661.36;238770;1192;139173;-57
2022/08/27 21:29:43;;;;;;;8.40;3.50;;;;;;;23.06;55.51;98663.43;238792;1192;140012;-58
2022/08/27 21:34:46;;;;;;;5.90;2.90;;;;;;;22.95;55.86;98650.73;237905;1192;138902;-58
2022/08/27 21:39:50;;;;;;;10.10;3.60;;;;;;;22.85;56.32;98643.77;237984;1191;139449;-57
2022/08/27 21:44:54;;;;;;;6.30;3.60;;;;;;;22.76;56.86;98629.72;238530;1192;139840;-58
2022/08/27 21:49:57;;;;;;;12.20;4.20;;;;;;;22.70;57.39;98617.60;238062;1191;139684;-58
2022/08/27 21:54:59;;;;;;;7.90;4.00;;;;;;;22.65;57.78;98601.09;238791;1192;140291;-58
2022/08/27 22:00:15;;;;;;;9.40;4.60;;;;;;;22.64;58.10;98582.91;238773;1192;139353;-57
2022/08/27 22:05:19;;;;;;;11.30;4.50;;;;;;;22.68;58.31;98570.04;237801;1190;139104;-58
2022/08/27 22:10:22;;;;;;;7.60;3.80;;;;;;;22.71;58.35;98570.95;238887;1192;140801;-58
2022/08/27 22:15:25;;;;;;;4.90;3.50;;;;;;;22.67;58.45;98552.92;238931;1190;139428;-58
2022/08/27 22:20:28;;;;;;;5.80;4.00;;;;;;;22.65;58.68;98556.88;238869;1192;138874;-56
2022/08/27 22:25:31;;;;;;;8.00;3.80;;;;;;;22.61;58.75;98555.61;238767;1190;139185;-59
2022/08/27 22:30:34;;;;;;;8.70;3.60;;;;;;;22.54;58.95;98561.75;237444;1192;141152;-57
2022/08/27 22:35:38;;;;;;;6.60;3.40;;;;;;;22.48;59.01;98581.81;237409;1192;139981;-58
2022/08/27 22:40:41;;;;;;;7.10;3.10;;;;;;;22.61;59.29;98585.87;237062;1192;139436;-58
2022/08/27 22:45:44;;;;;;;7.60;3.40;;;;;;;22.77;59.25;98582.63;238072;1192;141748;-58
2022/08/27 22:50:47;;;;;;;7.70;4.00;;;;;;;22.82;59.04;98576.69;238212;1191;140985;-58
2022/08/27 22:55:50;;;;;;;6.10;3.40;;;;;;;22.79;59.13;98571.56;238945;1190;139479;-58
2022/08/27 23:00:53;;;;;;;7.10;3.60;;;;;;;22.74;59.24;98575.30;238511;1192;139563;-56
2022/08/27 23:05:57;;;;;;;8.80;3.90;;;;;;;22.70;59.31;98574.91;238411;1192;139155;-58
2022/08/27 23:11:01;;;;;;;8.50;3.90;;;;;;;22.69;59.29;98576.40;238750;1192;140636;-57
2022/08/27 23:16:04;;;;;;;8.50;4.10;;;;;;;22.77;59.47;98576.97;238798;1192;139413;-57
2022/08/27 23:21:09;;;;;;;8.80;4.20;;;;;;;22.89;59.56;98583.48;238407;1190;138827;-56
2022/08/27 23:31:34;;;;;;;11.00;5.80;;;;;;;22.94;59.46;98595.23;238302;1191;138845;-57
2022/08/27 23:36:37;;;;;;;6.70;5.20;;;;;;;22.93;59.60;98600.32;237541;1192;138936;-58
2022/08/27 23:41:42;;;;;;;12.60;4.40;;;;;;;22.96;59.69;98605.79;238758;1190;139934;-57